Time;durP1;ratioP1;P1;durP2;ratioP2;P2;SDS_P1;SDS_P2;PMS_P1;PMS_P2;Temp;Humidity;BMP_temperature;BMP_pressure;BME280_temperature;BME280_humidity;BME280_pressure;Samples;Min_cycle;Max_cycle;Signal;HPM_P1;HPM_P2
2021/05/05 00:01:01;;;;;;;28.08;5.95;;;;;;;5.81;100.00;98164.63;5017254;28;20092;-78
2021/05/05 00:03:26;;;;;;;27.75;5.40;;;;;;;6.20;100.00;98167.41;4998538;28;20295;-78
2021/05/05 00:05:56;;;;;;;29.48;6.18;;;;;;;7.79;98.96;98164.28;5015754;28;20120;-77
2021/05/05 00:08:23;;;;;;;22.15;7.07;;;;;;;6.86;99.56;98164.47;5014979;28;20076;-78
2021/05/05 00:10:48;;;;;;;22.48;5.43;;;;;;;6.63;99.69;98170.59;4997096;28;20057;-78
2021/05/05 00:13:14;;;;;;;28.60;6.43;;;;;;;7.08;99.00;98168.19;5014552;28;20053;-77
2021/05/05 00:15:40;;;;;;;30.92;5.35;;;;;;;6.17;99.81;98159.75;5015325;28;20119;-78
2021/05/05 00:18:06;;;;;;;31.15;4.97;;;;;;;6.28;100.00;98158.56;4998333;28;20424;-78
2021/05/05 00:20:32;;;;;;;21.05;4.95;;;;;;;6.14;100.00;98160.09;5016650;28;20045;-78
2021/05/05 00:22:58;;;;;;;28.42;6.90;;;;;;;6.42;100.00;98178.34;5016877;28;20033;-78
2021/05/05 00:25:23;;;;;;;27.00;6.20;;;;;;;6.53;100.00;98177.16;5015830;28;20487;-78
2021/05/05 00:27:50;;;;;;;30.30;5.70;;;;;;;6.81;100.00;98143.63;5014521;28;20029;-77
2021/05/05 00:30:15;;;;;;;28.90;6.80;;;;;;;6.78;100.00;98152.00;5014203;28;20113;-77
2021/05/05 00:32:41;;;;;;;37.13;6.50;;;;;;;6.10;100.00;98137.44;4995337;28;20574;-77
2021/05/05 00:35:07;;;;;;;40.20;8.82;;;;;;;5.84;100.00;98153.59;5015681;28;20034;-78
2021/05/05 00:37:32;;;;;;;36.95;9.25;;;;;;;5.75;100.00;98149.28;5015289;28;20057;-77
2021/05/05 00:39:58;;;;;;;38.22;10.20;;;;;;;5.72;100.00;98166.47;5015443;28;20033;-78
2021/05/05 00:42:24;;;;;;;34.45;8.45;;;;;;;5.72;100.00;98165.63;5014883;28;20157;-78
2021/05/05 00:44:49;;;;;;;40.95;9.18;;;;;;;5.69;100.00;98163.28;5014563;28;20084;-78
2021/05/05 00:47:16;;;;;;;37.50;10.00;;;;;;;5.74;100.00;98160.97;5013666;28;20038;-78
2021/05/05 00:49:42;;;;;;;49.53;8.75;;;;;;;5.70;100.00;98184.47;5013109;28;20036;-77
2021/05/05 00:52:09;;;;;;;33.55;9.07;;;;;;;5.73;100.00;98176.13;5013229;28;20073;-78
2021/05/05 00:54:34;;;;;;;27.73;7.07;;;;;;;5.71;100.00;98163.97;5013853;28;20148;-78
2021/05/05 00:57:01;;;;;;;40.70;10.10;;;;;;;5.76;100.00;98172.31;5015875;28;20057;-78
2021/05/05 00:59:26;;;;;;;39.95;10.13;;;;;;;5.69;100.00;98176.63;4998123;28;20428;-78
2021/05/05 01:01:53;;;;;;;44.72;10.65;;;;;;;5.71;100.00;98166.63;5015201;28;20030;-77
2021/05/05 01:04:20;;;;;;;42.03;10.52;;;;;;;5.68;93.78;98172.31;4998582;28;20034;-78
2021/05/05 01:06:47;;;;;;;32.78;8.57;;;;;;;5.74;100.00;98171.63;5014978;28;20032;-78
2021/05/05 01:09:14;;;;;;;41.97;11.57;;;;;;;5.73;100.00;98170.81;5013473;28;20084;-78
2021/05/05 01:11:39;;;;;;;34.25;9.20;;;;;;;5.73;100.00;98194.81;4995447;28;20034;-78
2021/05/05 01:14:04;;;;;;;37.95;9.35;;;;;;;5.71;100.00;98180.78;5013383;28;20029;-78
2021/05/05 01:16:30;;;;;;;37.50;8.60;;;;;;;5.66;100.00;98185.81;4994037;28;20069;-78
2021/05/05 01:18:55;;;;;;;41.55;8.65;;;;;;;5.68;100.00;98185.63;5012971;28;20045;-77
2021/05/05 01:21:21;;;;;;;26.77;7.53;;;;;;;5.63;100.00;98169.28;5014376;28;20536;-78
2021/05/05 01:23:46;;;;;;;23.92;6.13;;;;;;;5.63;100.00;98171.97;5014552;28;20034;-77
2021/05/05 01:26:12;;;;;;;20.50;6.25;;;;;;;5.68;100.00;98178.47;5014408;28;20083;-78
2021/05/05 01:28:40;;;;;;;16.85;5.63;;;;;;;5.59;100.00;98198.13;4996127;28;20478;-78
2021/05/05 01:31:10;;;;;;;11.20;4.03;;;;;;;5.56;100.00;98189.63;5016137;28;20366;-78
2021/05/05 01:33:37;;;;;;;15.80;4.20;;;;;;;5.50;100.00;98185.81;5014417;28;20033;-77
2021/05/05 01:36:04;;;;;;;17.75;4.75;;;;;;;5.45;100.00;98183.66;5013141;28;20030;-77
2021/05/05 01:38:29;;;;;;;15.32;5.57;;;;;;;5.42;100.00;98197.31;4992804;28;20041;-77
2021/05/05 01:40:54;;;;;;;23.70;4.40;;;;;;;5.44;100.00;98192.63;4993194;28;20026;-77
2021/05/05 01:43:20;;;;;;;25.60;5.30;;;;;;;5.44;100.00;98189.97;5011636;28;20033;-77
2021/05/05 01:45:45;;;;;;;16.05;4.40;;;;;;;5.48;100.00;98185.16;5013230;28;20091;-77
2021/05/05 01:48:11;;;;;;;16.42;5.32;;;;;;;5.48;100.00;98193.97;5012353;28;20050;-77
2021/05/05 01:50:37;;;;;;;33.20;6.60;;;;;;;5.42;100.00;98191.16;4994088;28;20030;-77
2021/05/05 01:53:03;;;;;;;28.48;5.68;;;;;;;5.35;100.00;98180.28;5011497;28;20076;-77
2021/05/05 01:55:29;;;;;;;32.90;6.90;;;;;;;5.32;100.00;98187.78;5012207;28;20366;-78
2021/05/05 01:57:54;;;;;;;27.90;6.28;;;;;;;5.29;100.00;98172.97;5010937;28;20052;-77
2021/05/05 02:00:24;;;;;;;47.85;8.05;;;;;;;5.33;100.00;98179.66;4992653;28;20101;-78
2021/05/05 02:02:49;;;;;;;25.23;5.28;;;;;;;5.32;100.00;98185.94;5009889;28;20048;-77
2021/05/05 02:05:15;;;;;;;19.38;5.25;;;;;;;5.27;100.00;98201.63;5012449;28;20034;-77
2021/05/05 02:07:41;;;;;;;25.02;4.82;;;;;;;5.46;100.00;98201.28;5012079;28;20029;-77
2021/05/05 02:10:12;;;;;;;30.17;4.53;;;;;;;5.80;100.00;98205.63;5011840;28;20478;-77
2021/05/05 02:12:38;;;;;;;28.80;4.80;;;;;;;5.42;100.00;98189.31;4993872;28;20077;-77
2021/05/05 02:15:05;;;;;;;24.15;5.13;;;;;;;5.55;100.00;98177.31;4992957;28;20103;-77
2021/05/05 02:17:30;;;;;;;19.95;4.35;;;;;;;5.48;100.00;98195.81;5011269;28;20521;-77
2021/05/05 02:19:56;;;;;;;28.77;4.32;;;;;;;5.89;100.00;98185.94;4992166;28;20483;-78
2021/05/05 02:22:21;;;;;;;16.70;4.47;;;;;;;5.78;100.00;98185.47;4992658;28;20030;-78
2021/05/05 02:24:46;;;;;;;17.52;3.65;;;;;;;5.53;100.00;98202.28;5012202;28;20393;-77
2021/05/05 02:27:12;;;;;;;21.17;5.78;;;;;;;5.43;100.00;98185.63;5011748;28;20034;-77
2021/05/05 02:29:37;;;;;;;21.60;4.53;;;;;;;5.40;100.00;98196.63;5011127;28;20149;-77
2021/05/05 02:32:07;;;;;;;27.20;5.03;;;;;;;5.33;100.00;98189.47;4993169;28;20061;-77
2021/05/05 02:34:33;;;;;;;20.77;4.18;;;;;;;5.13;100.00;98195.09;5011346;28;20096;-78
2021/05/05 02:36:58;;;;;;;31.50;5.43;;;;;;;5.14;100.00;98185.25;5010328;28;20132;-79
2021/05/05 02:39:24;;;;;;;23.27;3.80;;;;;;;5.11;100.00;98191.75;5011772;28;20029;-79
2021/05/05 02:41:50;;;;;;;27.92;4.63;;;;;;;5.10;100.00;98194.59;5014420;28;20041;-79
2021/05/05 02:44:15;;;;;;;26.55;4.85;;;;;;;5.06;100.00;98194.91;4996811;28;20041;-79
2021/05/05 02:46:42;;;;;;;36.42;5.45;;;;;;;5.06;100.00;98186.94;5013864;28;20489;-78
2021/05/05 02:49:07;;;;;;;30.73;5.05;;;;;;;5.02;100.00;98190.94;5013030;28;20057;-78
2021/05/05 02:51:33;;;;;;;35.92;5.22;;;;;;;5.00;100.00;98186.75;4993981;28;20565;-78
2021/05/05 02:53:59;;;;;;;30.45;4.15;;;;;;;4.95;100.00;98186.41;4993762;28;20057;-78
2021/05/05 02:56:24;;;;;;;26.45;4.32;;;;;;;4.94;100.00;98179.41;5012266;28;20034;-78
2021/05/05 02:58:50;;;;;;;25.08;4.72;;;;;;;4.85;100.00;98186.53;5011394;28;20057;-78
2021/05/05 03:01:16;;;;;;;28.00;5.25;;;;;;;4.79;100.00;98187.19;5011470;28;20029;-78
2021/05/05 03:03:41;;;;;;;28.48;4.40;;;;;;;4.82;100.00;98209.00;5011530;28;20030;-77
2021/05/05 03:06:07;;;;;;;21.48;4.57;;;;;;;4.83;100.00;98197.34;4995554;28;20038;-78
2021/05/05 03:08:32;;;;;;;32.65;5.25;;;;;;;4.88;100.00;98182.72;4995608;28;20088;-78
2021/05/05 03:10:59;;;;;;;35.20;5.35;;;;;;;4.88;100.00;98191.53;4994596;28;20469;-78
2021/05/05 03:13:24;;;;;;;27.98;4.80;;;;;;;4.90;100.00;98192.22;5012255;28;20041;-77
2021/05/05 03:15:50;;;;;;;21.67;3.30;;;;;;;4.92;100.00;98189.38;5014721;28;20030;-77
2021/05/05 03:18:15;;;;;;;24.17;3.15;;;;;;;4.86;100.00;98182.03;5014405;28;20505;-77
2021/05/05 03:20:40;;;;;;;28.08;3.00;;;;;;;4.81;100.00;98186.03;5015593;28;20030;-77
2021/05/05 03:23:06;;;;;;;20.27;3.10;;;;;;;4.85;100.00;98191.88;5014446;28;20368;-77
2021/05/05 03:25:31;;;;;;;24.95;3.58;;;;;;;4.86;100.00;98180.22;4996439;28;20057;-77
2021/05/05 03:27:57;;;;;;;28.95;4.72;;;;;;;4.87;100.00;98186.38;5001178;28;20031;-77
2021/05/05 03:30:22;;;;;;;22.67;4.82;;;;;;;4.81;100.00;98195.84;5018991;28;20045;-77
2021/05/05 03:32:48;;;;;;;16.90;4.43;;;;;;;4.75;100.00;98197.34;5018482;28;20026;-78
2021/05/05 03:35:13;;;;;;;29.05;2.95;;;;;;;4.71;100.00;98182.66;4998873;28;20069;-78
2021/05/05 03:37:39;;;;;;;23.08;3.28;;;;;;;4.72;100.00;98180.84;4998120;28;20030;-77
2021/05/05 03:40:05;;;;;;;20.40;3.42;;;;;;;4.74;100.00;98177.00;4997528;28;20056;-78
2021/05/05 03:42:31;;;;;;;22.20;3.55;;;;;;;4.79;100.00;98169.38;5014712;28;20474;-77
2021/05/05 03:44:58;;;;;;;13.52;2.75;;;;;;;4.80;100.00;98179.03;5014801;28;20030;-77
2021/05/05 03:47:23;;;;;;;20.98;3.47;;;;;;;4.80;100.00;98172.88;5013970;28;20026;-77
2021/05/05 03:49:48;;;;;;;21.45;3.28;;;;;;;4.81;100.00;98166.56;5014970;28;20034;-77
2021/05/05 03:52:14;;;;;;;23.00;3.03;;;;;;;4.82;100.00;98176.22;5016465;28;20052;-77
2021/05/05 03:54:39;;;;;;;30.48;3.92;;;;;;;4.87;100.00;98168.59;4999084;28;20037;-78
2021/05/05 03:57:04;;;;;;;17.48;3.03;;;;;;;4.83;100.00;98172.53;5017386;28;20121;-79
2021/05/05 03:59:30;;;;;;;19.58;3.65;;;;;;;4.96;100.00;98164.94;5018189;28;20056;-78
2021/05/05 04:01:55;;;;;;;19.38;3.10;;;;;;;4.99;100.00;98167.28;5016542;28;20494;-79
2021/05/05 04:04:20;;;;;;;21.30;3.40;;;;;;;4.93;100.00;98175.91;5015926;28;20052;-78
2021/05/05 04:06:46;;;;;;;25.90;4.95;;;;;;;4.95;100.00;98165.09;4996576;28;20034;-78
2021/05/05 04:09:11;;;;;;;19.50;3.17;;;;;;;4.93;100.00;98172.41;5013719;28;20413;-78
2021/05/05 04:11:36;;;;;;;18.77;3.10;;;;;;;4.90;100.00;98170.91;5012553;28;20034;-77
2021/05/05 04:14:03;;;;;;;32.05;5.70;;;;;;;4.94;100.00;98161.59;5011896;28;20034;-77
2021/05/05 04:16:29;;;;;;;36.10;5.82;;;;;;;5.02;100.00;98168.75;5014506;28;20037;-79
2021/05/05 04:18:54;;;;;;;19.73;3.33;;;;;;;4.99;100.00;98163.75;4995920;28;20533;-78
2021/05/05 04:21:20;;;;;;;28.52;3.72;;;;;;;5.01;100.00;98167.94;4999399;28;20025;-78
2021/05/05 04:23:46;;;;;;;25.48;4.05;;;;;;;5.03;100.00;98157.94;5016507;28;20041;-78
2021/05/05 04:26:11;;;;;;;28.30;4.65;;;;;;;5.11;100.00;98159.78;5015148;28;20025;-78
2021/05/05 04:28:37;;;;;;;23.83;4.00;;;;;;;5.07;100.00;98155.78;5017634;28;20041;-79
2021/05/05 04:31:04;;;;;;;37.42;4.72;;;;;;;5.12;100.00;98157.97;5015723;28;20030;-79
2021/05/05 04:33:30;;;;;;;16.20;3.17;;;;;;;5.14;100.00;98158.63;5014660;28;20056;-78
2021/05/05 04:35:55;;;;;;;24.10;3.53;;;;;;;5.10;100.00;98149.31;5013730;28;20025;-78
2021/05/05 04:38:20;;;;;;;27.02;3.88;;;;;;;5.19;100.00;98151.81;4996210;28;20053;-78
2021/05/05 04:40:46;;;;;;;25.52;4.35;;;;;;;5.20;100.00;98158.78;5012731;28;20116;-77
2021/05/05 04:43:11;;;;;;;31.90;4.75;;;;;;;5.23;100.00;98154.97;5015001;28;20057;-78
2021/05/05 04:45:36;;;;;;;27.55;5.03;;;;;;;5.18;100.00;98155.47;5014317;28;20034;-77
2021/05/05 04:48:02;;;;;;;31.48;5.38;;;;;;;5.26;100.00;98162.63;4994662;28;20038;-78
2021/05/05 04:50:28;;;;;;;28.95;4.72;;;;;;;5.29;100.00;98154.31;5013319;28;20409;-78
2021/05/05 04:52:53;;;;;;;31.95;5.00;;;;;;;5.36;100.00;98151.84;5013076;28;20414;-77
2021/05/05 04:55:19;;;;;;;31.77;4.78;;;;;;;5.39;100.00;98163.00;5012420;28;20056;-77
2021/05/05 04:57:45;;;;;;;32.10;5.05;;;;;;;5.45;100.00;98153.50;5013000;28;20482;-77
2021/05/05 05:00:11;;;;;;;41.97;5.10;;;;;;;5.51;100.00;98171.50;5006723;28;20072;-77
2021/05/05 05:02:37;;;;;;;32.60;4.60;;;;;;;5.45;100.00;98165.00;4984025;28;20045;-77
2021/05/05 05:05:04;;;;;;;34.58;5.93;;;;;;;5.45;100.00;98165.00;4994625;28;20026;-77
2021/05/05 05:07:31;;;;;;;42.15;5.90;;;;;;;5.44;100.00;98163.31;5012371;28;20093;-78
2021/05/05 05:09:57;;;;;;;33.33;5.72;;;;;;;5.56;100.00;98168.31;5013956;28;20030;-78
2021/05/05 05:12:23;;;;;;;27.95;4.55;;;;;;;5.78;100.00;98172.94;5008883;28;20509;-78
2021/05/05 05:14:48;;;;;;;25.83;4.25;;;;;;;5.83;100.00;98175.13;5014233;28;20041;-78
2021/05/05 05:17:13;;;;;;;30.42;5.10;;;;;;;5.80;100.00;98176.28;5007676;28;20513;-78
2021/05/05 05:19:39;;;;;;;24.50;4.40;;;;;;;5.83;100.00;98173.28;5008950;28;20105;-79
2021/05/05 05:22:04;;;;;;;27.42;5.20;;;;;;;5.70;100.00;98167.66;5007202;28;20068;-78
2021/05/05 05:24:29;;;;;;;23.17;4.15;;;;;;;5.71;100.00;98166.63;5011166;28;20032;-79
2021/05/05 05:26:55;;;;;;;22.42;4.35;;;;;;;5.63;100.00;98163.97;5005286;28;20028;-78
2021/05/05 05:29:20;;;;;;;22.52;4.18;;;;;;;5.76;100.00;98172.31;5005732;28;20057;-78
2021/05/05 05:31:48;;;;;;;26.35;3.90;;;;;;;5.97;100.00;98172.66;5014058;28;20061;-78
2021/05/05 05:34:14;;;;;;;31.23;6.55;;;;;;;6.17;100.00;98166.91;5012632;28;20164;-78
2021/05/05 05:36:40;;;;;;;27.50;4.75;;;;;;;6.14;100.00;98176.09;5011613;28;20033;-78
2021/05/05 05:39:06;;;;;;;29.33;6.05;;;;;;;6.08;100.00;98178.63;4994082;28;20508;-78
2021/05/05 05:41:31;;;;;;;28.00;5.50;;;;;;;6.13;100.00;98178.94;5010231;28;20022;-78
2021/05/05 05:43:57;;;;;;;33.97;5.13;;;;;;;6.15;100.00;98195.59;5011180;28;20073;-78
2021/05/05 05:46:22;;;;;;;30.38;6.93;;;;;;;6.14;100.00;98188.59;5010012;28;20607;-78
2021/05/05 05:48:48;;;;;;;24.92;6.05;;;;;;;6.10;100.00;98184.63;5015627;28;20037;-78
2021/05/05 05:51:13;;;;;;;32.78;6.65;;;;;;;6.14;100.00;98189.44;5015359;28;20072;-79
2021/05/05 05:53:39;;;;;;;32.95;9.50;;;;;;;6.03;100.00;98188.94;5014093;28;20030;-78
2021/05/05 05:56:05;;;;;;;27.48;7.20;;;;;;;5.98;100.00;98189.47;5001702;28;20026;-78
2021/05/05 05:58:31;;;;;;;22.27;6.78;;;;;;;6.06;100.00;98192.13;5012260;28;20449;-78
2021/05/05 06:00:56;;;;;;;27.98;7.47;;;;;;;6.29;100.00;98196.75;4974717;28;20061;-78
2021/05/05 06:03:21;;;;;;;37.45;8.63;;;;;;;6.29;100.00;98200.25;4998048;28;20398;-79
2021/05/05 06:05:47;;;;;;;29.92;8.10;;;;;;;6.30;100.00;98198.41;5012709;28;20034;-78
2021/05/05 06:08:13;;;;;;;34.08;10.23;;;;;;;6.19;100.00;98196.94;5014218;28;20432;-78
2021/05/05 06:10:39;;;;;;;28.58;7.63;;;;;;;6.25;100.00;98208.78;5012760;28;20050;-78
2021/05/05 06:13:04;;;;;;;25.40;7.00;;;;;;;6.38;100.00;98215.25;5012723;28;20042;-78
2021/05/05 06:15:30;;;;;;;32.45;10.52;;;;;;;6.63;100.00;98217.81;4998047;28;20033;-78
2021/05/05 06:17:55;;;;;;;40.53;20.25;;;;;;;6.70;100.00;98231.31;5011130;28;20581;-78
2021/05/05 06:20:20;;;;;;;27.60;10.57;;;;;;;6.83;100.00;98227.09;5011792;28;20626;-78
2021/05/05 06:22:47;;;;;;;29.60;10.40;;;;;;;6.87;100.00;98233.75;5018055;28;20041;-79
2021/05/05 06:25:12;;;;;;;27.73;11.00;;;;;;;6.90;100.00;98229.91;5014642;28;20041;-78
2021/05/05 06:27:38;;;;;;;24.77;7.22;;;;;;;6.72;100.00;98245.34;5013356;28;20034;-78
2021/05/05 06:30:06;;;;;;;33.95;12.13;;;;;;;6.65;100.00;98238.03;5010271;28;20083;-78
2021/05/05 06:32:31;;;;;;;29.42;11.45;;;;;;;6.80;100.00;98226.63;5013521;28;20116;-78
2021/05/05 06:34:57;;;;;;;17.75;8.05;;;;;;;6.87;100.00;98238.28;5011391;28;20068;-78
2021/05/05 06:37:23;;;;;;;21.75;7.40;;;;;;;6.76;100.00;98246.66;5009905;28;20040;-78
2021/05/05 06:39:48;;;;;;;14.02;6.05;;;;;;;6.58;100.00;98249.53;5017498;28;20026;-78
2021/05/05 06:42:14;;;;;;;18.52;7.75;;;;;;;6.28;100.00;98249.31;5014302;28;20042;-78
2021/05/05 06:44:39;;;;;;;23.52;8.25;;;;;;;6.10;100.00;98252.16;5013226;28;20057;-78
2021/05/05 06:47:04;;;;;;;30.48;8.18;;;;;;;6.04;100.00;98260.84;5013026;28;20030;-78
2021/05/05 06:49:33;;;;;;;26.08;10.10;;;;;;;5.99;100.00;98269.31;5015062;28;20049;-78
2021/05/05 06:51:58;;;;;;;11.48;4.53;;;;;;;5.67;100.00;98291.47;5017065;28;20033;-78
2021/05/05 06:54:23;;;;;;;11.68;3.92;;;;;;;5.68;100.00;98290.47;5019098;28;20026;-78
2021/05/05 06:56:49;;;;;;;10.82;3.75;;;;;;;5.72;100.00;98281.16;5019872;28;20080;-78
2021/05/05 06:59:14;;;;;;;14.10;3.03;;;;;;;5.70;100.00;98292.97;5017528;28;20021;-78
2021/05/05 07:01:40;;;;;;;17.70;4.43;;;;;;;5.75;100.00;98290.63;5017804;28;20041;-78
2021/05/05 07:04:09;;;;;;;12.02;2.08;;;;;;;5.71;100.00;98298.13;5016758;28;20029;-78
2021/05/05 07:06:35;;;;;;;15.82;3.65;;;;;;;5.50;100.00;98297.75;5015612;28;20033;-77
2021/05/05 07:09:00;;;;;;;25.63;5.10;;;;;;;5.48;100.00;98310.44;5017005;28;20512;-80
2021/05/05 07:11:28;;;;;;;18.83;5.20;;;;;;;5.63;100.00;98335.47;5017344;28;20025;-78
2021/05/05 07:13:54;;;;;;;13.07;2.88;;;;;;;5.75;100.00;98312.81;5020480;28;20057;-78
2021/05/05 07:16:20;;;;;;;15.30;2.15;;;;;;;5.74;100.00;98318.31;5015666;28;20034;-78
2021/05/05 07:18:46;;;;;;;11.90;2.10;;;;;;;5.75;100.00;98322.63;5016025;28;20036;-78
2021/05/05 07:21:12;;;;;;;12.98;1.95;;;;;;;5.99;100.00;98322.69;5015994;28;20397;-77
2021/05/05 07:23:37;;;;;;;9.93;1.92;;;;;;;5.94;100.00;98333.03;5015140;28;20026;-78
2021/05/05 07:26:03;;;;;;;7.85;2.03;;;;;;;5.96;100.00;98336.34;5016616;28;20052;-79
2021/05/05 07:28:28;;;;;;;11.55;2.08;;;;;;;5.74;100.00;98329.81;5017221;28;20042;-78
2021/05/05 07:30:53;;;;;;;9.25;1.83;;;;;;;5.80;100.00;98328.31;5018238;28;20047;-78
2021/05/05 07:33:18;;;;;;;11.55;2.42;;;;;;;6.15;100.00;98334.38;5017068;28;20037;-78
2021/05/05 07:35:50;;;;;;;15.07;2.65;;;;;;;6.20;100.00;98340.88;5017896;28;20042;-79
2021/05/05 07:46:17;;;;;;;8.90;2.00;;;;;;;5.87;100.00;98349.81;5019543;28;20052;-79
2021/05/05 07:48:56;;;;;;;10.38;1.95;;;;;;;5.86;100.00;98357.00;5015877;28;20058;-78
2021/05/05 07:51:22;;;;;;;19.30;2.42;;;;;;;5.79;100.00;98345.31;5015614;28;20064;-78
2021/05/05 07:53:48;;;;;;;14.52;3.55;;;;;;;5.85;100.00;98359.84;5016342;28;20038;-78
2021/05/05 07:56:14;;;;;;;59.25;5.70;;;;;;;5.97;100.00;98372.72;5016428;28;20061;-78
2021/05/05 07:58:42;;;;;;;12.68;2.58;;;;;;;6.08;100.00;98354.72;5015658;28;20034;-78
2021/05/05 08:01:08;;;;;;;8.18;1.73;;;;;;;6.14;100.00;98375.41;5016101;28;20490;-78
2021/05/05 08:03:33;;;;;;;12.25;1.88;;;;;;;6.15;100.00;98356.56;5014335;28;20022;-78
2021/05/05 08:05:59;;;;;;;13.57;1.73;;;;;;;5.85;100.00;98371.34;5015270;28;20442;-79
2021/05/05 08:08:24;;;;;;;11.15;2.80;;;;;;;5.88;100.00;98360.34;5015948;28;20038;-79
2021/05/05 08:10:49;;;;;;;19.10;1.80;;;;;;;5.86;100.00;98391.66;5017010;28;20038;-79
2021/05/05 08:13:15;;;;;;;14.45;2.03;;;;;;;5.97;100.00;98364.72;5015754;28;20390;-78
2021/05/05 08:15:40;;;;;;;15.20;2.55;;;;;;;6.32;100.00;98383.25;5014721;28;20087;-77
2021/05/05 08:18:07;;;;;;;11.20;1.85;;;;;;;6.61;100.00;98372.91;5010267;28;20062;-78
2021/05/05 08:20:35;;;;;;;10.00;2.03;;;;;;;6.98;100.00;98360.81;5014621;28;20034;-78
2021/05/05 08:23:03;;;;;;;13.82;2.28;;;;;;;6.99;100.00;98367.00;5007029;28;20029;-78
2021/05/05 08:25:29;;;;;;;17.65;2.70;;;;;;;7.46;100.00;98366.97;5014687;28;20595;-78
2021/05/05 08:27:55;;;;;;;11.25;1.92;;;;;;;7.54;100.00;98369.63;5010308;28;20029;-79
2021/05/05 08:30:20;;;;;;;17.95;2.28;;;;;;;7.17;100.00;98372.94;5013096;28;20026;-79
2021/05/05 08:32:46;;;;;;;8.57;1.63;;;;;;;6.88;100.00;98365.50;5015279;28;20466;-78
2021/05/05 08:35:12;;;;;;;12.23;2.35;;;;;;;7.09;100.00;98365.78;5014529;28;20056;-79
2021/05/05 08:37:38;;;;;;;10.40;1.70;;;;;;;6.82;99.43;98387.53;5014035;28;20069;-78
2021/05/05 08:40:04;;;;;;;18.77;1.60;;;;;;;6.83;100.00;98394.59;5015167;28;20500;-79
2021/05/05 08:42:30;;;;;;;41.65;4.05;;;;;;;6.71;100.00;98385.25;5013568;28;20045;-79
2021/05/05 08:44:55;;;;;;;6.53;1.42;;;;;;;6.34;100.00;98376.75;5014870;28;20469;-78
2021/05/05 08:47:21;;;;;;;9.20;2.03;;;;;;;6.53;96.97;98394.25;5007917;28;20381;-78
2021/05/05 08:49:47;;;;;;;7.30;1.58;;;;;;;6.60;99.22;98386.41;5008848;28;20157;-78
2021/05/05 08:52:12;;;;;;;16.55;1.92;;;;;;;6.96;100.00;98386.03;5014558;28;20034;-79
2021/05/05 08:54:37;;;;;;;11.38;1.80;;;;;;;7.11;97.98;98387.81;5010216;28;20359;-78
2021/05/05 08:57:03;;;;;;;8.63;1.38;;;;;;;6.86;95.60;98397.75;5012365;28;20033;-78
2021/05/05 08:59:29;;;;;;;13.20;2.05;;;;;;;6.79;99.25;98393.22;5013756;28;21130;-79
2021/05/05 09:01:54;;;;;;;11.40;1.60;;;;;;;6.39;97.44;98411.78;5007761;28;20042;-79
2021/05/05 09:04:20;;;;;;;15.07;2.33;;;;;;;6.59;100.00;98400.78;5011860;28;20108;-78
2021/05/05 09:06:55;;;;;;;9.95;2.05;;;;;;;6.48;100.00;98388.59;5014009;28;20409;-78
2021/05/05 09:09:40;;;;;;;10.82;2.38;;;;;;;6.58;99.98;98394.59;5013926;28;20058;-78
2021/05/05 09:12:25;;;;;;;9.77;1.30;;;;;;;6.52;100.00;98402.44;5012173;28;20029;-78
2021/05/05 09:15:10;;;;;;;7.30;1.52;;;;;;;6.26;100.00;98398.09;5014114;28;20030;-79
2021/05/05 09:17:41;;;;;;;12.20;3.55;;;;;;;6.29;100.00;98391.59;4991349;28;20403;-79
2021/05/05 09:20:06;;;;;;;10.13;1.67;;;;;;;6.17;100.00;98407.09;5009893;28;20037;-78
2021/05/05 09:22:43;;;;;;;9.20;2.42;;;;;;;6.24;100.00;98402.75;5013236;28;20030;-78
2021/05/05 09:25:11;;;;;;;8.88;1.50;;;;;;;6.22;100.00;98394.09;5013739;28;20044;-78
2021/05/05 09:27:37;;;;;;;10.25;1.77;;;;;;;6.14;100.00;98407.44;5013086;28;20030;-78
2021/05/05 09:30:16;;;;;;;15.23;2.58;;;;;;;6.26;100.00;98410.63;5014060;28;20045;-78
2021/05/05 09:32:49;;;;;;;9.88;1.90;;;;;;;6.33;100.00;98395.59;5010244;28;20494;-78
2021/05/05 09:35:15;;;;;;;12.80;1.75;;;;;;;6.08;100.00;98405.41;5018491;28;20068;-78
2021/05/05 09:37:41;;;;;;;20.65;2.50;;;;;;;6.06;100.00;98410.06;5012291;28;20060;-78
2021/05/05 09:40:10;;;;;;;17.70;2.85;;;;;;;6.25;100.00;98425.78;5012036;28;20497;-78
2021/05/05 09:42:36;;;;;;;9.55;1.85;;;;;;;6.31;100.00;98411.78;5007821;28;20033;-78
2021/05/05 09:45:09;;;;;;;8.15;1.80;;;;;;;6.67;100.00;98409.63;5010524;28;20067;-77
2021/05/05 09:47:55;;;;;;;6.28;1.55;;;;;;;6.78;96.50;98410.28;5013292;28;20117;-79
2021/05/05 09:50:25;;;;;;;9.75;1.30;;;;;;;6.72;100.00;98413.63;5008813;28;20044;-78
2021/05/05 09:52:51;;;;;;;5.75;1.55;;;;;;;6.87;100.00;98414.59;5001046;28;20029;-78
2021/05/05 09:55:19;;;;;;;8.05;1.63;;;;;;;6.82;100.00;98415.09;5012573;28;20033;-78
2021/05/05 09:57:44;;;;;;;12.88;2.05;;;;;;;6.61;100.00;98420.13;5006823;28;20121;-78
2021/05/05 10:00:17;;;;;;;9.63;1.30;;;;;;;6.65;100.00;98408.13;5013537;28;20054;-78
2021/05/05 10:02:47;;;;;;;15.63;2.10;;;;;;;6.48;100.00;98417.13;5009713;28;20120;-78
2021/05/05 10:05:14;;;;;;;8.35;1.50;;;;;;;6.11;100.00;98423.75;4990649;28;20030;-78
2021/05/05 10:07:59;;;;;;;13.77;1.83;;;;;;;6.15;100.00;98423.28;5005443;28;20035;-78
2021/05/05 10:10:33;;;;;;;10.40;1.58;;;;;;;5.93;100.00;98408.72;5001247;28;20080;-78
2021/05/05 10:13:01;;;;;;;12.73;1.95;;;;;;;6.02;100.00;98430.09;5012033;28;20037;-77
2021/05/05 10:15:27;;;;;;;11.63;2.25;;;;;;;5.95;100.00;98429.91;5006470;28;20529;-77
2021/05/05 10:17:54;;;;;;;8.65;1.48;;;;;;;6.07;100.00;98409.09;5007960;28;20033;-78
2021/05/05 10:20:24;;;;;;;10.63;3.80;;;;;;;6.59;100.00;98460.34;5000623;28;20100;-79
2021/05/05 10:22:55;;;;;;;11.20;1.30;;;;;;;7.14;97.30;98438.25;5009352;28;20052;-78
2021/05/05 10:25:21;;;;;;;;;;;;;;;7.35;94.64;98450.25;5012616;28;20026;-78
2021/05/05 10:27:47;;;;;;;3.22;1.00;;;;;;;7.12;93.42;98456.31;5012404;28;20340;-78
2021/05/05 10:30:15;;;;;;;5.32;1.35;;;;;;;6.81;99.49;98458.03;5013560;28;20033;-81
2021/05/05 10:32:45;;;;;;;2.88;1.00;;;;;;;6.79;99.44;98452.00;4995175;28;20108;-81
2021/05/05 10:35:15;;;;;;;10.05;1.50;;;;;;;6.94;99.84;98458.34;5014437;28;20058;-81
2021/05/05 10:37:41;;;;;;;5.93;1.48;;;;;;;6.51;100.00;98462.19;4995654;28;20041;-80
2021/05/05 10:40:28;;;;;;;3.50;0.93;;;;;;;6.05;100.00;98477.78;5000904;28;20030;-80
2021/05/05 10:42:57;;;;;;;11.35;1.40;;;;;;;5.90;100.00;98464.19;5004038;28;20061;-80
2021/05/05 10:45:37;;;;;;;4.05;1.00;;;;;;;5.64;100.00;98477.63;5012828;28;20076;-80
2021/05/05 10:48:07;;;;;;;9.35;1.48;;;;;;;5.74;100.00;98449.81;5012668;28;20026;-79
2021/05/05 10:50:55;;;;;;;4.65;1.33;;;;;;;5.49;100.00;98446.22;4997345;28;20030;-79
2021/05/05 10:53:23;;;;;;;8.40;1.63;;;;;;;5.51;100.00;98449.56;4997912;28;20030;-79
2021/05/05 10:55:59;;;;;;;12.20;1.67;;;;;;;5.61;100.00;98467.28;5010682;28;20388;-80
2021/05/05 10:58:30;;;;;;;8.48;2.00;;;;;;;6.05;100.00;98472.44;5011406;28;20033;-80
2021/05/05 11:00:57;;;;;;;18.30;1.67;;;;;;;6.02;100.00;98454.94;4979428;28;20030;-80
2021/05/05 11:03:41;;;;;;;9.00;1.38;;;;;;;5.83;100.00;98469.34;5007284;28;20038;-79
2021/05/05 11:06:35;;;;;;;8.00;1.50;;;;;;;5.80;100.00;98469.66;5011760;28;20482;-80
2021/05/05 11:09:10;;;;;;;12.75;2.13;;;;;;;5.84;100.00;98496.84;5005959;28;20077;-80
2021/05/05 11:11:36;;;;;;;11.02;1.52;;;;;;;5.53;100.00;98458.22;5006155;28;20030;-79
2021/05/05 11:14:02;;;;;;;7.35;1.77;;;;;;;5.55;100.00;98466.06;5004157;28;20437;-79
2021/05/05 11:16:59;;;;;;;12.45;2.92;;;;;;;5.51;100.00;98454.06;5008936;28;20029;-78
2021/05/05 11:19:37;;;;;;;19.33;3.33;;;;;;;5.48;100.00;98471.22;5000760;28;20109;-78
2021/05/05 11:22:02;;;;;;;20.00;4.35;;;;;;;5.61;100.00;98483.28;5013776;28;20034;-79
2021/05/05 11:24:31;;;;;;;36.83;5.10;;;;;;;5.79;100.00;98477.84;5011334;28;20042;-79
2021/05/05 11:26:57;;;;;;;30.80;4.72;;;;;;;5.96;100.00;98476.91;5000621;28;20076;-77
2021/05/05 11:29:34;;;;;;;27.45;4.65;;;;;;;6.01;100.00;98495.97;5010549;28;20028;-78
2021/05/05 11:32:04;;;;;;;33.60;5.22;;;;;;;6.10;100.00;98486.16;5011405;28;20090;-80
2021/05/05 11:34:35;;;;;;;36.63;6.00;;;;;;;6.26;100.00;98501.38;5009055;28;20486;-78